Terminal Aerodrome Forecast
Issued by NWS Nashville, TN

Home | Current Version | Previous Version | Text Only | Print | Product List | Glossary On
Versions: 1 2 3 4 5 6 7 8 9 10 11 12 13 14 15 16 17 18 19 20 21 22 23 24 25 26 27 28 29 30 31
758
FTUS44 KOHX 281737
TAFBNA
TAF
KBNA 281737Z 2818/2918 26012KT P6SM BKN040 BKN150
     FM290200 23006KT P6SM VCSH BKN030
     FM290800 34002KT 4SM BR BKN025
     FM291300 32005KT P6SM SCT035=

USA.gov is the U.S. government's official web portal to all federal, state and local government web resources and services.